Time;durP1;ratioP1;P1;durP2;ratioP2;P2;SDS_P1;SDS_P2;PMS_P1;PMS_P2;Temp;Humidity;BMP_temperature;BMP_pressure;BME280_temperature;BME280_humidity;BME280_pressure;Samples;Min_cycle;Max_cycle;Signal;HPM_P1;HPM_P2
2023/12/06 00:01:21;;;;;;;0.80;0.57;;;2.10;99.90;;;;;;5071789;27;20127;-57
2023/12/06 00:03:47;;;;;;;0.85;0.70;;;2.10;99.90;;;;;;5057435;28;20035;-59
2023/12/06 00:06:13;;;;;;;1.10;0.80;;;2.10;99.90;;;;;;5060695;28;20060;-58
2023/12/06 00:08:39;;;;;;;0.88;0.50;;;2.20;99.90;;;;;;5059731;28;20555;-56
2023/12/06 00:11:04;;;;;;;0.95;0.70;;;2.10;99.90;;;;;;5058153;28;20041;-56
2023/12/06 00:13:30;;;;;;;0.93;0.50;;;2.10;99.90;;;;;;5059845;28;20048;-59
2023/12/06 00:15:56;;;;;;;0.65;0.50;;;2.10;99.90;;;;;;5060268;28;20817;-55
2023/12/06 00:18:21;;;;;;;1.02;0.60;;;2.10;99.90;;;;;;5048913;28;20052;-54
2023/12/06 00:20:47;;;;;;;2.25;0.95;;;2.10;99.90;;;;;;5046133;28;20045;-58
2023/12/06 00:23:13;;;;;;;0.73;0.57;;;2.00;99.90;;;;;;5048075;28;20033;-56
2023/12/06 00:25:38;;;;;;;1.00;0.70;;;2.10;99.90;;;;;;5048164;28;20041;-61
2023/12/06 00:28:04;;;;;;;0.80;0.50;;;2.00;99.90;;;;;;5047610;28;20086;-59
2023/12/06 00:30:30;;;;;;;3.88;0.68;;;2.10;99.90;;;;;;5050000;28;20131;-58
2023/12/06 00:32:55;;;;;;;1.00;0.70;;;2.10;99.90;;;;;;5065292;28;20071;-61
2023/12/06 00:35:21;;;;;;;1.08;0.60;;;2.10;99.90;;;;;;5067063;28;20037;-55
2023/12/06 00:37:46;;;;;;;1.17;0.50;;;2.00;99.90;;;;;;5065470;28;20506;-61
2023/12/06 00:40:12;;;;;;;0.77;0.40;;;2.00;99.90;;;;;;5066130;28;20036;-56
2023/12/06 00:42:38;;;;;;;1.35;0.50;;;2.10;99.90;;;;;;5067344;28;20044;-59
2023/12/06 00:45:04;;;;;;;1.48;0.70;;;2.10;99.90;;;;;;5067624;28;20085;-56
2023/12/06 00:47:34;;;;;;;1.08;0.60;;;2.00;99.90;;;;;;5065743;28;20045;-58
2023/12/06 00:50:00;;;;;;;1.48;0.60;;;2.00;99.90;;;;;;5064680;28;20083;-62
2023/12/06 00:52:25;;;;;;;1.58;0.70;;;2.00;99.90;;;;;;5065975;28;20064;-60
2023/12/06 00:54:51;;;;;;;1.50;0.80;;;2.00;99.90;;;;;;5065406;28;20123;-57
2023/12/06 00:57:16;;;;;;;1.83;0.93;;;2.00;99.90;;;;;;5069961;28;20481;-60
2023/12/06 00:59:42;;;;;;;2.78;0.80;;;2.00;99.90;;;;;;5061905;28;20472;-59
2023/12/06 01:02:07;;;;;;;0.60;0.60;;;2.00;99.90;;;;;;5064610;28;20576;-61
2023/12/06 01:04:37;;;;;;;1.00;0.70;;;2.00;99.90;;;;;;5064721;28;20036;-61
2023/12/06 01:07:03;;;;;;;1.00;0.80;;;2.00;99.90;;;;;;5064886;28;20067;-59
2023/12/06 01:09:28;;;;;;;0.90;0.65;;;2.00;99.90;;;;;;5062537;28;20143;-61
2023/12/06 01:11:54;;;;;;;1.50;1.08;;;2.00;99.90;;;;;;5064914;28;20047;-59
2023/12/06 01:14:19;;;;;;;2.03;1.08;;;2.00;99.90;;;;;;5064552;28;20123;-61
2023/12/06 01:16:45;;;;;;;1.92;1.00;;;2.00;99.90;;;;;;5066433;28;20523;-60
2023/12/06 01:19:10;;;;;;;1.83;1.15;;;2.00;99.90;;;;;;5064102;28;20531;-58
2023/12/06 01:21:36;;;;;;;2.38;1.48;;;2.00;99.90;;;;;;5067098;28;20527;-61
2023/12/06 01:24:02;;;;;;;1.90;1.40;;;2.00;99.90;;;;;;5064955;28;20605;-61
2023/12/06 01:26:27;;;;;;;2.53;1.70;;;2.00;99.90;;;;;;5063507;28;20071;-61
2023/12/06 01:28:53;;;;;;;3.92;1.90;;;2.00;99.90;;;;;;5063937;28;20060;-61
2023/12/06 01:31:18;;;;;;;4.05;2.30;;;2.00;99.90;;;;;;5056140;28;20036;-61
2023/12/06 01:33:44;;;;;;;5.00;2.78;;;2.00;99.90;;;;;;5044497;28;20052;-61
2023/12/06 01:36:10;;;;;;;4.68;2.88;;;1.90;99.90;;;;;;5045158;28;20036;-60
2023/12/06 01:38:36;;;;;;;6.50;3.35;;;1.90;99.90;;;;;;5045304;28;20090;-56
2023/12/06 01:41:02;;;;;;;4.68;2.80;;;1.90;99.90;;;;;;5044859;28;20036;-60
2023/12/06 01:43:28;;;;;;;5.55;3.33;;;1.90;99.90;;;;;;5046219;28;20052;-62
2023/12/06 01:45:54;;;;;;;4.38;2.85;;;1.90;99.90;;;;;;5045499;28;20048;-60
2023/12/06 01:48:22;;;;;;;3.42;2.30;;;1.80;99.90;;;;;;5044117;28;20053;-57
2023/12/06 01:50:50;;;;;;;4.72;3.00;;;1.90;99.90;;;;;;5037573;28;20179;-59
2023/12/06 01:53:15;;;;;;;4.65;2.60;;;1.90;99.90;;;;;;5044696;28;20041;-59
2023/12/06 01:55:41;;;;;;;6.75;3.20;;;1.90;99.90;;;;;;5044282;28;20076;-61
2023/12/06 01:58:07;;;;;;;7.63;3.67;;;1.90;99.90;;;;;;5044664;28;20174;-60
2023/12/06 02:00:33;;;;;;;5.78;3.38;;;2.00;99.90;;;;;;5048373;28;20033;-61
2023/12/06 02:02:59;;;;;;;6.78;3.80;;;2.00;99.90;;;;;;5064886;28;20041;-52
2023/12/06 02:05:24;;;;;;;5.68;3.60;;;2.00;99.90;;;;;;5065724;28;20127;-57
2023/12/06 02:07:51;;;;;;;5.78;3.75;;;1.90;99.90;;;;;;5065202;28;20057;-57
2023/12/06 02:10:17;;;;;;;7.30;3.63;;;2.00;99.90;;;;;;5064801;28;20036;-59
2023/12/06 02:12:43;;;;;;;8.10;3.88;;;2.00;99.90;;;;;;5065297;28;20048;-58
2023/12/06 02:15:09;;;;;;;7.40;4.07;;;1.90;99.90;;;;;;5059533;28;20502;-61
2023/12/06 02:17:35;;;;;;;6.18;3.80;;;1.90;99.90;;;;;;5064356;28;20123;-57
2023/12/06 02:20:02;;;;;;;7.80;3.50;;;1.90;99.90;;;;;;5064317;28;20049;-61
2023/12/06 02:22:28;;;;;;;5.07;3.50;;;1.90;99.90;;;;;;5058867;28;20835;-61
2023/12/06 02:24:59;;;;;;;6.45;3.72;;;1.90;99.90;;;;;;5063944;28;20045;-61
2023/12/06 02:27:24;;;;;;;5.07;3.33;;;1.90;99.90;;;;;;5059526;28;20862;-60
2023/12/06 02:29:50;;;;;;;5.90;3.65;;;1.90;99.90;;;;;;5062467;28;20132;-55
2023/12/06 02:32:16;;;;;;;5.68;3.35;;;1.80;99.90;;;;;;5062258;28;20064;-59
2023/12/06 02:34:42;;;;;;;5.30;3.30;;;1.90;99.90;;;;;;5064832;28;20826;-60
2023/12/06 02:37:08;;;;;;;4.43;2.70;;;1.90;99.90;;;;;;5062351;28;20524;-57
2023/12/06 02:39:42;;;;;;;3.88;2.28;;;1.90;99.90;;;;;;5069309;28;20047;-59
2023/12/06 02:42:10;;;;;;;5.00;2.42;;;1.90;99.90;;;;;;5059679;28;20036;-54
2023/12/06 02:44:36;;;;;;;3.28;2.28;;;1.90;99.90;;;;;;5063491;28;20796;-60
2023/12/06 02:47:02;;;;;;;4.40;2.42;;;1.90;99.90;;;;;;5061170;28;20041;-57
2023/12/06 02:49:28;;;;;;;3.65;2.13;;;1.90;99.90;;;;;;5057864;28;20089;-59
2023/12/06 02:51:54;;;;;;;3.45;2.35;;;1.90;99.90;;;;;;5062906;28;20032;-61
2023/12/06 02:54:19;;;;;;;6.20;2.67;;;1.90;99.90;;;;;;5061361;28;21457;-57
2023/12/06 02:56:45;;;;;;;4.43;2.30;;;1.80;99.90;;;;;;5069092;28;20064;-57
2023/12/06 02:59:10;;;;;;;3.65;1.85;;;1.90;99.90;;;;;;5058241;28;20052;-56
2023/12/06 03:01:36;;;;;;;3.90;1.60;;;1.90;99.90;;;;;;5052284;28;20047;-60
2023/12/06 03:04:02;;;;;;;2.85;1.80;;;1.80;99.90;;;;;;5043894;28;21575;-59
2023/12/06 03:06:27;;;;;;;2.28;1.50;;;1.80;99.90;;;;;;5044166;28;20045;-57
2023/12/06 03:08:53;;;;;;;3.10;1.90;;;1.80;99.90;;;;;;5040203;28;20029;-60
2023/12/06 03:11:18;;;;;;;1.98;1.30;;;1.80;99.90;;;;;;5041151;28;20099;-60
2023/12/06 03:13:44;;;;;;;2.08;1.40;;;1.80;99.90;;;;;;5038063;28;20104;-61
2023/12/06 03:16:09;;;;;;;3.15;1.77;;;1.90;99.90;;;;;;5038672;28;20118;-60
2023/12/06 03:18:35;;;;;;;2.20;1.20;;;1.90;99.90;;;;;;5047489;28;20043;-59
2023/12/06 03:21:00;;;;;;;2.10;1.55;;;1.90;99.90;;;;;;5045471;28;20059;-54
2023/12/06 03:23:26;;;;;;;3.30;1.60;;;1.90;99.90;;;;;;5046150;28;20036;-57
2023/12/06 03:25:52;;;;;;;2.25;1.42;;;1.80;99.90;;;;;;5046663;28;20053;-59
2023/12/06 03:28:18;;;;;;;3.75;1.60;;;1.80;99.90;;;;;;5042480;28;20458;-60
2023/12/06 03:30:43;;;;;;;2.15;1.55;;;1.80;99.90;;;;;;5048503;28;20560;-60
2023/12/06 03:33:09;;;;;;;2.55;1.88;;;1.80;99.90;;;;;;5062611;28;20040;-59
2023/12/06 03:35:34;;;;;;;2.63;1.85;;;1.70;99.90;;;;;;5064605;28;20067;-54
2023/12/06 03:38:00;;;;;;;4.82;2.25;;;1.70;99.90;;;;;;5068487;28;20029;-59
2023/12/06 03:40:26;;;;;;;3.05;1.67;;;1.60;99.90;;;;;;5061066;28;20072;-53
2023/12/06 03:42:51;;;;;;;3.40;2.00;;;1.60;99.90;;;;;;5060619;28;20064;-57
2023/12/06 03:45:17;;;;;;;2.60;1.85;;;1.60;99.90;;;;;;5062757;28;20045;-58
2023/12/06 03:47:43;;;;;;;2.15;1.60;;;1.50;99.90;;;;;;5062279;28;20044;-60
2023/12/06 03:50:09;;;;;;;2.83;1.90;;;1.50;99.90;;;;;;5063173;28;20036;-59
2023/12/06 03:52:34;;;;;;;3.22;2.28;;;1.50;99.90;;;;;;5063729;28;20032;-59
2023/12/06 03:55:00;;;;;;;2.97;1.95;;;1.50;99.90;;;;;;5065675;28;20032;-59
2023/12/06 03:57:25;;;;;;;3.35;2.13;;;1.50;99.90;;;;;;5065977;28;20135;-59
2023/12/06 03:59:51;;;;;;;3.50;2.33;;;1.40;99.90;;;;;;5067402;28;20591;-57
2023/12/06 04:02:17;;;;;;;2.95;1.92;;;1.40;99.90;;;;;;5070177;28;20056;-58
2023/12/06 04:04:43;;;;;;;3.55;2.33;;;1.40;99.90;;;;;;5063435;28;20033;-60
2023/12/06 04:07:09;;;;;;;3.63;2.08;;;1.40;99.90;;;;;;5065870;28;20163;-58
2023/12/06 04:09:34;;;;;;;4.53;2.55;;;1.40;99.90;;;;;;5066813;28;20107;-58
2023/12/06 04:12:00;;;;;;;4.00;2.60;;;1.40;99.90;;;;;;5066050;28;20532;-56
2023/12/06 04:14:26;;;;;;;4.43;2.67;;;1.40;99.90;;;;;;5067289;28;20041;-58
2023/12/06 04:16:52;;;;;;;4.47;2.47;;;1.40;99.90;;;;;;5067114;28;20040;-61
2023/12/06 04:19:17;;;;;;;4.47;2.40;;;1.30;99.90;;;;;;5071412;28;20032;-54
2023/12/06 04:21:43;;;;;;;4.13;2.30;;;1.30;99.90;;;;;;5079601;28;20559;-51
2023/12/06 04:24:09;;;;;;;4.30;2.70;;;1.40;99.90;;;;;;5066425;28;20064;-59
2023/12/06 04:26:34;;;;;;;4.65;3.00;;;1.30;99.90;;;;;;5067139;28;20072;-56
2023/12/06 04:29:00;;;;;;;6.47;3.65;;;1.40;99.90;;;;;;5064792;28;20500;-59
2023/12/06 04:31:25;;;;;;;4.85;3.22;;;1.40;99.90;;;;;;5067443;28;20051;-56
2023/12/06 04:33:51;;;;;;;3.95;2.75;;;1.40;99.90;;;;;;5065927;28;20036;-53
2023/12/06 04:36:16;;;;;;;5.07;2.72;;;1.40;99.90;;;;;;5063032;28;20040;-57
2023/12/06 04:38:42;;;;;;;4.57;2.95;;;1.40;99.90;;;;;;5069245;28;20798;-57
2023/12/06 04:41:07;;;;;;;4.70;2.70;;;1.40;99.90;;;;;;5074651;28;20043;-55
2023/12/06 04:43:34;;;;;;;5.00;2.95;;;1.40;99.90;;;;;;5069392;28;20271;-54
2023/12/06 04:45:59;;;;;;;4.95;2.90;;;1.30;99.90;;;;;;5066967;28;20139;-57
2023/12/06 04:48:25;;;;;;;4.30;2.97;;;1.20;99.90;;;;;;5062974;28;20139;-56
2023/12/06 04:50:51;;;;;;;5.10;3.40;;;1.30;99.90;;;;;;5064583;28;20051;-57
2023/12/06 04:53:17;;;;;;;4.70;3.00;;;1.20;99.90;;;;;;5064343;28;20672;-55
2023/12/06 04:55:43;;;;;;;4.50;3.10;;;1.20;99.90;;;;;;5064325;28;20040;-57
2023/12/06 04:58:09;;;;;;;5.22;3.10;;;1.20;99.90;;;;;;5065405;28;20111;-59
2023/12/06 05:00:36;;;;;;;5.03;2.97;;;1.10;99.90;;;;;;5065946;28;20041;-57
2023/12/06 05:03:02;;;;;;;4.68;3.15;;;1.10;99.90;;;;;;5063721;28;20506;-57
2023/12/06 05:05:27;;;;;;;5.28;3.63;;;1.10;99.90;;;;;;5065510;28;20155;-57
2023/12/06 05:07:55;;;;;;;5.65;3.70;;;1.10;99.90;;;;;;5064642;28;20699;-59
2023/12/06 05:10:21;;;;;;;7.60;4.55;;;1.10;99.90;;;;;;5066298;28;20118;-60
2023/12/06 05:12:47;;;;;;;5.72;3.53;;;1.00;99.90;;;;;;5065291;28;20032;-57
2023/12/06 05:15:12;;;;;;;7.13;4.40;;;1.00;99.90;;;;;;5066450;28;20370;-58
2023/12/06 05:17:38;;;;;;;6.63;4.32;;;1.00;99.90;;;;;;5064903;28;20416;-56
2023/12/06 05:20:06;;;;;;;5.65;3.67;;;1.00;99.90;;;;;;5063571;28;20041;-55
2023/12/06 05:22:31;;;;;;;5.78;3.50;;;1.00;99.90;;;;;;5062758;28;20051;-54
2023/12/06 05:25:07;;;;;;;5.28;3.63;;;0.90;99.90;;;;;;5065419;28;20032;-60
2023/12/06 05:27:33;;;;;;;5.05;3.47;;;1.00;99.90;;;;;;5067643;28;20079;-57
2023/12/06 05:29:58;;;;;;;4.97;3.22;;;1.00;99.90;;;;;;5065958;28;20032;-58
2023/12/06 05:32:24;;;;;;;3.95;2.80;;;0.90;99.90;;;;;;5065246;28;20036;-57
2023/12/06 05:34:50;;;;;;;5.43;3.50;;;0.80;99.90;;;;;;5068458;28;20036;-58
2023/12/06 05:37:15;;;;;;;5.30;3.45;;;0.80;99.90;;;;;;5064955;28;20044;-51
2023/12/06 05:39:41;;;;;;;4.82;2.90;;;0.80;99.90;;;;;;5065451;28;20040;-60
2023/12/06 05:42:07;;;;;;;5.00;3.30;;;0.90;99.90;;;;;;5064856;28;20021;-60
2023/12/06 05:44:33;;;;;;;4.82;3.45;;;0.90;99.90;;;;;;5065001;28;20051;-58
2023/12/06 05:46:59;;;;;;;5.30;3.50;;;0.90;99.90;;;;;;5064681;28;20593;-56
2023/12/06 05:49:25;;;;;;;4.95;3.20;;;0.90;99.90;;;;;;5065357;28;20447;-58
2023/12/06 05:51:50;;;;;;;7.72;4.57;;;0.90;99.90;;;;;;5064539;28;20040;-55
2023/12/06 05:54:17;;;;;;;8.15;5.10;;;0.90;99.90;;;;;;5064648;28;20037;-54
2023/12/06 05:56:42;;;;;;;7.60;5.25;;;0.90;99.90;;;;;;5064924;28;20048;-57
2023/12/06 05:59:08;;;;;;;11.32;6.60;;;0.90;99.90;;;;;;5067288;28;20796;-58
2023/12/06 06:01:33;;;;;;;13.43;7.68;;;0.80;99.90;;;;;;5067447;28;20043;-56
2023/12/06 06:03:59;;;;;;;12.50;7.15;;;0.80;99.90;;;;;;5065386;28;20040;-54
2023/12/06 06:06:25;;;;;;;11.13;7.00;;;0.80;99.90;;;;;;5067777;28;20139;-57
2023/12/06 06:08:50;;;;;;;14.45;8.00;;;0.80;99.90;;;;;;5063158;28;20086;-55
2023/12/06 06:11:16;;;;;;;10.65;6.38;;;0.80;99.90;;;;;;5065495;28;20642;-56
2023/12/06 06:13:41;;;;;;;9.80;6.00;;;0.70;99.90;;;;;;5064541;28;20071;-56
2023/12/06 06:16:07;;;;;;;9.02;5.53;;;0.70;99.90;;;;;;5064137;28;20051;-53
2023/12/06 06:18:33;;;;;;;7.07;4.78;;;0.70;99.90;;;;;;5063203;28;20585;-58
2023/12/06 06:21:05;;;;;;;9.40;4.78;;;0.60;99.90;;;;;;5064529;28;20031;-58
2023/12/06 06:23:31;;;;;;;7.68;4.70;;;0.70;99.90;;;;;;5059684;28;20165;-59
2023/12/06 06:25:56;;;;;;;7.95;5.15;;;0.70;99.90;;;;;;5064807;28;20171;-53
2023/12/06 06:28:22;;;;;;;7.80;4.75;;;0.70;99.90;;;;;;5066384;28;20047;-56
2023/12/06 06:30:47;;;;;;;8.15;4.90;;;0.60;99.90;;;;;;5059386;28;20761;-55
2023/12/06 06:33:13;;;;;;;7.82;4.70;;;0.60;99.90;;;;;;5041844;28;20037;-57
2023/12/06 06:35:38;;;;;;;6.95;4.68;;;0.60;99.90;;;;;;5048034;28;20039;-56
2023/12/06 06:38:04;;;;;;;7.55;4.85;;;0.50;99.90;;;;;;5045050;28;20043;-62
2023/12/06 06:40:30;;;;;;;9.30;5.25;;;0.50;99.90;;;;;;5046828;28;20033;-62
2023/12/06 06:42:55;;;;;;;11.68;5.10;;;0.60;99.90;;;;;;5052361;28;20737;-63
2023/12/06 06:45:21;;;;;;;6.72;4.35;;;0.60;99.90;;;;;;5058448;28;20048;-62
2023/12/06 06:47:46;;;;;;;7.35;4.70;;;0.50;99.90;;;;;;5063026;28;20047;-62
2023/12/06 06:50:12;;;;;;;7.43;4.63;;;0.50;99.90;;;;;;5062914;28;20043;-62
2023/12/06 06:52:38;;;;;;;7.28;4.65;;;0.50;99.90;;;;;;5060220;28;20040;-60
2023/12/06 06:55:07;;;;;;;6.63;4.40;;;0.50;99.90;;;;;;5061030;28;20052;-64
2023/12/06 06:57:33;;;;;;;5.82;4.18;;;0.50;99.90;;;;;;5062011;28;20821;-61
2023/12/06 06:59:58;;;;;;;7.38;4.68;;;0.50;99.90;;;;;;5064369;28;20036;-62
2023/12/06 07:02:24;;;;;;;6.15;4.68;;;0.50;99.90;;;;;;5045088;28;20114;-62
2023/12/06 07:04:51;;;;;;;8.70;4.60;;;0.40;99.90;;;;;;5046629;28;20065;-62
2023/12/06 07:07:17;;;;;;;6.97;4.43;;;0.40;99.90;;;;;;5043450;28;20132;-62
2023/12/06 07:09:43;;;;;;;6.43;4.32;;;0.50;99.90;;;;;;5044116;28;20076;-59
2023/12/06 07:12:09;;;;;;;7.88;4.35;;;0.40;99.90;;;;;;5041571;28;20126;-58
2023/12/06 07:14:35;;;;;;;7.00;4.47;;;0.50;99.90;;;;;;5040899;28;20045;-59
2023/12/06 07:17:01;;;;;;;7.70;4.45;;;0.50;99.90;;;;;;5043283;28;20443;-57
2023/12/06 07:19:26;;;;;;;5.35;3.80;;;0.50;99.90;;;;;;5043094;28;20493;-62
2023/12/06 07:21:52;;;;;;;8.38;5.20;;;0.40;99.90;;;;;;5042300;28;20102;-63
2023/12/06 07:24:20;;;;;;;8.57;5.40;;;0.50;99.90;;;;;;5042861;28;20037;-62
2023/12/06 07:26:46;;;;;;;13.07;6.03;;;0.50;99.90;;;;;;5042361;28;20052;-61
2023/12/06 07:29:12;;;;;;;8.25;5.57;;;0.40;99.90;;;;;;5049172;28;20033;-63
2023/12/06 07:31:39;;;;;;;10.48;5.90;;;0.40;99.90;;;;;;5058602;28;20051;-58
2023/12/06 07:34:05;;;;;;;9.48;5.95;;;0.30;99.90;;;;;;5063405;28;20072;-60
2023/12/06 07:36:31;;;;;;;9.55;5.60;;;0.30;99.90;;;;;;5068189;28;20072;-59
2023/12/06 07:38:57;;;;;;;8.73;5.63;;;0.30;99.90;;;;;;5066455;28;20131;-55
2023/12/06 07:41:23;;;;;;;11.00;6.65;;;0.20;99.90;;;;;;5063386;28;20124;-59
2023/12/06 07:43:49;;;;;;;9.63;5.60;;;0.30;99.90;;;;;;5060366;28;20049;-60
2023/12/06 07:46:14;;;;;;;12.93;6.28;;;0.30;99.90;;;;;;5065151;28;20043;-57
2023/12/06 07:48:40;;;;;;;10.65;6.30;;;0.20;99.90;;;;;;5065053;28;20047;-58
2023/12/06 07:51:06;;;;;;;11.32;7.05;;;0.30;99.90;;;;;;5066542;28;20484;-63
2023/12/06 07:53:31;;;;;;;14.07;7.57;;;0.20;99.90;;;;;;5066635;28;20489;-59
2023/12/06 07:55:58;;;;;;;13.75;8.10;;;0.10;99.90;;;;;;5068101;28;20098;-54
2023/12/06 07:58:24;;;;;;;13.73;8.13;;;0.10;99.90;;;;;;5062884;28;20045;-60
2023/12/06 08:00:50;;;;;;;13.80;8.13;;;0.10;99.90;;;;;;5059831;28;20140;-58
2023/12/06 08:03:21;;;;;;;14.20;8.60;;;0.10;99.90;;;;;;5046356;28;20072;-59
2023/12/06 08:05:46;;;;;;;17.20;9.80;;;0.10;99.90;;;;;;5048170;28;20578;-58
2023/12/06 08:08:13;;;;;;;16.52;9.90;;;0.10;99.90;;;;;;5047975;28;20037;-58
2023/12/06 08:10:41;;;;;;;15.68;9.45;;;0.10;99.90;;;;;;5046870;28;20048;-61
2023/12/06 08:13:07;;;;;;;16.77;10.30;;;0.10;99.90;;;;;;5047301;28;20595;-58
2023/12/06 08:15:32;;;;;;;19.23;9.30;;;0.10;99.90;;;;;;5048195;28;20744;-58
2023/12/06 08:17:58;;;;;;;14.20;8.40;;;0.10;99.90;;;;;;5046957;28;20139;-57
2023/12/06 08:20:23;;;;;;;14.43;8.88;;;0.10;99.90;;;;;;5047726;28;20104;-55
2023/12/06 08:22:49;;;;;;;15.73;9.35;;;0.20;99.90;;;;;;5048669;28;20029;-61
2023/12/06 08:25:15;;;;;;;13.10;7.97;;;0.20;99.90;;;;;;5046961;28;20119;-58
2023/12/06 08:27:40;;;;;;;12.75;7.65;;;0.10;99.90;;;;;;5046686;28;20243;-58
2023/12/06 08:30:06;;;;;;;12.90;6.78;;;0.10;99.90;;;;;;5047316;28;20459;-56
2023/12/06 08:32:32;;;;;;;11.95;7.43;;;0.20;99.90;;;;;;5064631;28;20045;-53
2023/12/06 08:34:58;;;;;;;11.65;6.88;;;0.10;99.90;;;;;;5059749;28;20072;-58
2023/12/06 08:37:24;;;;;;;10.93;6.40;;;0.20;99.90;;;;;;5066002;28;20052;-59
2023/12/06 08:39:50;;;;;;;10.45;5.93;;;0.20;99.90;;;;;;5065761;28;20043;-60
2023/12/06 08:42:16;;;;;;;10.93;6.40;;;0.30;99.90;;;;;;5065756;28;20400;-57
2023/12/06 08:44:42;;;;;;;10.60;5.85;;;0.20;99.90;;;;;;5066311;28;20098;-57
2023/12/06 08:47:12;;;;;;;9.63;5.95;;;0.30;99.90;;;;;;5065969;28;20067;-61
2023/12/06 08:49:38;;;;;;;10.45;5.95;;;0.30;99.90;;;;;;5066978;28;20032;-60
2023/12/06 08:52:05;;;;;;;9.23;5.35;;;0.40;99.90;;;;;;5064880;28;20082;-60
2023/12/06 08:54:32;;;;;;;9.55;5.60;;;0.40;99.90;;;;;;5064872;28;20039;-60
2023/12/06 08:56:58;;;;;;;9.63;5.43;;;0.40;99.90;;;;;;5068153;28;20508;-62
2023/12/06 08:59:23;;;;;;;8.20;5.22;;;0.40;99.90;;;;;;5063218;28;20067;-60
2023/12/06 09:01:49;;;;;;;7.05;4.63;;;0.40;99.90;;;;;;5050211;28;20056;-62
2023/12/06 09:04:14;;;;;;;7.22;5.05;;;0.40;99.90;;;;;;5045967;28;20037;-61
2023/12/06 09:06:40;;;;;;;8.82;5.18;;;0.40;99.90;;;;;;5048404;28;20142;-61
2023/12/06 09:09:06;;;;;;;9.20;5.35;;;0.50;99.90;;;;;;5045669;28;20400;-59
2023/12/06 09:11:31;;;;;;;10.23;5.55;;;0.40;99.90;;;;;;5046542;28;20044;-61
2023/12/06 09:13:57;;;;;;;8.00;5.07;;;0.40;99.90;;;;;;5044560;28;20044;-62
2023/12/06 09:16:23;;;;;;;11.05;6.30;;;0.50;99.90;;;;;;5044564;28;20069;-58
2023/12/06 09:18:48;;;;;;;10.10;5.70;;;0.50;99.90;;;;;;5044202;28;20079;-61
2023/12/06 09:21:14;;;;;;;8.38;5.40;;;0.50;99.90;;;;;;5046384;28;20065;-60
2023/12/06 09:23:40;;;;;;;8.43;4.88;;;0.50;99.90;;;;;;5045411;28;20064;-60
2023/12/06 09:26:05;;;;;;;10.25;5.43;;;0.60;99.90;;;;;;5046202;28;20043;-62
2023/12/06 09:28:31;;;;;;;9.70;5.95;;;0.60;99.90;;;;;;5045072;28;20036;-61
2023/12/06 09:30:57;;;;;;;9.05;5.50;;;0.60;99.90;;;;;;5049690;28;20048;-62
2023/12/06 09:33:23;;;;;;;8.80;5.40;;;0.70;99.90;;;;;;5064390;28;20067;-61
2023/12/06 09:35:48;;;;;;;7.80;5.25;;;0.80;99.90;;;;;;5059971;28;20045;-62
2023/12/06 09:38:14;;;;;;;9.68;5.88;;;0.80;99.90;;;;;;5064306;28;20036;-63
2023/12/06 09:40:39;;;;;;;11.15;5.75;;;0.80;99.90;;;;;;5067131;28;20059;-63
2023/12/06 09:43:05;;;;;;;10.10;6.15;;;0.90;99.90;;;;;;5064549;28;20033;-60
2023/12/06 09:45:31;;;;;;;9.00;5.43;;;0.80;99.90;;;;;;5065998;28;20036;-62
2023/12/06 09:47:57;;;;;;;8.95;5.65;;;0.80;99.90;;;;;;5060611;28;20120;-62
2023/12/06 09:50:25;;;;;;;9.27;6.30;;;0.80;99.90;;;;;;5065018;28;20040;-62
2023/12/06 09:52:52;;;;;;;9.43;5.78;;;0.80;99.90;;;;;;5062087;28;20404;-58
2023/12/06 09:55:24;;;;;;;10.60;5.65;;;0.70;99.90;;;;;;5065271;28;20036;-61
2023/12/06 09:57:56;;;;;;;8.38;5.57;;;0.70;99.90;;;;;;5062888;28;20079;-60
2023/12/06 10:00:22;;;;;;;9.75;5.93;;;0.70;99.90;;;;;;5065199;28;20151;-60
2023/12/06 10:02:57;;;;;;;11.07;6.85;;;0.70;99.90;;;;;;5064161;28;20045;-60
2023/12/06 10:05:22;;;;;;;10.55;6.50;;;0.70;99.90;;;;;;5062973;28;20059;-59
2023/12/06 10:07:48;;;;;;;11.57;7.18;;;0.70;99.90;;;;;;5062361;28;20127;-56
2023/12/06 10:10:22;;;;;;;11.07;7.28;;;0.80;99.90;;;;;;5066785;28;20047;-61
2023/12/06 10:12:50;;;;;;;10.82;6.75;;;0.80;99.90;;;;;;5065200;28;20097;-61
2023/12/06 10:15:17;;;;;;;11.02;6.95;;;0.90;99.90;;;;;;5055719;28;20441;-61
2023/12/06 10:17:43;;;;;;;13.55;7.32;;;0.90;99.90;;;;;;5063326;28;20093;-61
2023/12/06 10:20:08;;;;;;;12.00;6.85;;;0.80;99.90;;;;;;5064888;28;20098;-60
2023/12/06 10:22:35;;;;;;;11.02;6.68;;;0.90;99.90;;;;;;5062818;28;20044;-60
2023/12/06 10:25:02;;;;;;;11.85;7.25;;;0.90;99.90;;;;;;5064278;28;20032;-61
2023/12/06 10:27:30;;;;;;;12.77;7.78;;;0.80;99.90;;;;;;5058082;28;20048;-55
2023/12/06 10:29:56;;;;;;;10.07;6.60;;;0.90;99.90;;;;;;5065137;28;20182;-58
2023/12/06 10:32:22;;;;;;;11.43;7.60;;;0.80;99.90;;;;;;5062308;28;20075;-52
2023/12/06 10:34:49;;;;;;;11.80;6.50;;;0.80;99.90;;;;;;5063997;28;20045;-61
2023/12/06 10:37:19;;;;;;;10.65;6.55;;;0.80;99.90;;;;;;5060320;28;20072;-58
2023/12/06 10:39:48;;;;;;;9.85;6.43;;;0.80;99.90;;;;;;5061140;28;20055;-61
2023/12/06 10:42:19;;;;;;;12.52;7.15;;;0.80;99.90;;;;;;5063285;28;20123;-56
2023/12/06 10:44:45;;;;;;;12.68;7.50;;;0.90;99.90;;;;;;5061075;28;20071;-58
2023/12/06 10:47:12;;;;;;;10.00;6.30;;;0.80;99.90;;;;;;5053546;28;20048;-49
2023/12/06 10:49:38;;;;;;;10.60;5.95;;;0.80;99.90;;;;;;5058763;28;20512;-65
2023/12/06 10:52:04;;;;;;;10.25;6.53;;;0.80;99.90;;;;;;5059231;28;20276;-64
2023/12/06 10:54:30;;;;;;;10.20;6.97;;;1.00;99.90;;;;;;5064330;28;20051;-62
2023/12/06 10:56:56;;;;;;;11.52;6.97;;;0.90;99.90;;;;;;5058920;28;20037;-64
2023/12/06 10:59:29;;;;;;;15.02;8.63;;;0.90;99.90;;;;;;5062154;28;20640;-63
2023/12/06 11:01:56;;;;;;;10.50;6.75;;;0.90;99.90;;;;;;5060676;28;20048;-64
2023/12/06 11:04:25;;;;;;;9.68;6.32;;;1.00;99.90;;;;;;5064321;28;20048;-63
2023/12/06 11:07:28;;;;;;;11.27;6.63;;;1.00;99.90;;;;;;5064019;28;20044;-63
2023/12/06 11:10:24;;;;;;;9.35;6.05;;;1.10;99.90;;;;;;5063384;28;20048;-60
2023/12/06 11:13:18;;;;;;;9.57;5.43;;;1.20;99.90;;;;;;5060144;28;20053;-65
2023/12/06 11:16:05;;;;;;;8.60;5.65;;;1.20;99.90;;;;;;5059889;28;20149;-62
2023/12/06 11:18:49;;;;;;;9.70;4.95;;;1.30;99.90;;;;;;5058522;28;20071;-59
2023/12/06 11:21:17;;;;;;;28.08;14.80;;;1.30;99.90;;;;;;5058326;28;20585;-58
2023/12/06 11:23:46;;;;;;;6.93;4.97;;;1.30;99.90;;;;;;5066849;28;20075;-59
2023/12/06 11:26:12;;;;;;;7.40;5.32;;;1.20;99.90;;;;;;5062633;28;20055;-56
2023/12/06 11:28:42;;;;;;;7.53;5.47;;;1.00;99.90;;;;;;5071002;28;20044;-61
2023/12/06 11:31:15;;;;;;;9.95;4.90;;;1.10;99.90;;;;;;5054695;28;20067;-62
2023/12/06 11:33:41;;;;;;;6.50;4.50;;;1.10;99.90;;;;;;5050138;28;20119;-62
2023/12/06 11:36:16;;;;;;;7.35;4.75;;;1.20;99.90;;;;;;5041099;28;20064;-61
2023/12/06 11:38:42;;;;;;;6.97;4.73;;;1.20;99.90;;;;;;5034168;28;20037;-58
2023/12/06 11:41:15;;;;;;;12.57;4.38;;;1.20;99.90;;;;;;5040388;28;20295;-57
2023/12/06 11:43:50;;;;;;;7.28;4.45;;;1.30;99.90;;;;;;5037052;28;20048;-61
2023/12/06 11:46:17;;;;;;;6.25;3.97;;;1.20;99.90;;;;;;5037324;28;20053;-60
2023/12/06 11:48:45;;;;;;;5.93;3.58;;;1.20;99.90;;;;;;5045952;28;20131;-62
2023/12/06 11:51:19;;;;;;;4.63;3.40;;;1.20;99.90;;;;;;5044659;28;20033;-63
2023/12/06 11:53:45;;;;;;;5.28;3.40;;;1.20;99.90;;;;;;5048470;28;20040;-62
2023/12/06 11:56:11;;;;;;;6.18;3.92;;;1.30;99.90;;;;;;5042746;28;20495;-59
2023/12/06 11:58:38;;;;;;;3.85;2.55;;;1.30;99.90;;;;;;5046127;28;20033;-60
2023/12/06 12:01:04;;;;;;;4.65;3.42;;;1.30;99.90;;;;;;5050523;28;20105;-60
2023/12/06 12:03:35;;;;;;;5.00;3.33;;;1.20;99.90;;;;;;5058064;28;20129;-61
2023/12/06 12:06:01;;;;;;;4.97;3.10;;;1.20;99.90;;;;;;5059755;28;20045;-62
2023/12/06 12:08:28;;;;;;;5.60;3.50;;;1.20;99.90;;;;;;5057368;28;20052;-58
2023/12/06 12:10:54;;;;;;;5.68;3.65;;;1.30;99.90;;;;;;5069386;28;20496;-62
2023/12/06 12:13:24;;;;;;;5.38;3.75;;;1.30;99.90;;;;;;5061396;28;20028;-63
2023/12/06 12:15:55;;;;;;;5.63;3.65;;;1.20;99.90;;;;;;5060246;28;20111;-61
2023/12/06 12:18:20;;;;;;;6.60;3.97;;;1.10;99.90;;;;;;5064900;28;20040;-61
2023/12/06 12:20:46;;;;;;;5.68;3.97;;;1.10;99.90;;;;;;5064263;28;20052;-62
2023/12/06 12:23:12;;;;;;;5.70;4.10;;;1.10;99.90;;;;;;5057180;28;21144;-62
2023/12/06 12:25:48;;;;;;;7.43;4.70;;;1.10;99.90;;;;;;5057792;28;20032;-62
2023/12/06 12:28:17;;;;;;;6.10;4.10;;;1.10;99.90;;;;;;5059283;28;20041;-58
2023/12/06 12:30:44;;;;;;;10.60;5.68;;;1.20;99.90;;;;;;5061022;28;20186;-59
2023/12/06 12:33:11;;;;;;;9.88;5.13;;;1.20;99.90;;;;;;5063056;28;20119;-61
2023/12/06 12:35:36;;;;;;;11.18;6.53;;;1.20;99.90;;;;;;5066613;28;20036;-60
2023/12/06 12:38:03;;;;;;;11.05;6.82;;;1.20;99.90;;;;;;5061722;28;20047;-61
2023/12/06 12:40:29;;;;;;;9.82;5.97;;;1.20;99.90;;;;;;5065550;28;20048;-60
2023/12/06 12:42:56;;;;;;;9.82;6.07;;;1.30;99.90;;;;;;5063210;28;20065;-61
2023/12/06 12:45:21;;;;;;;10.10;6.03;;;1.30;99.90;;;;;;5062650;28;20127;-61
2023/12/06 12:47:47;;;;;;;12.73;7.82;;;1.30;99.90;;;;;;5066818;28;20170;-62
2023/12/06 12:50:23;;;;;;;14.15;7.10;;;1.20;99.90;;;;;;5066161;28;20059;-61
2023/12/06 12:52:51;;;;;;;15.00;8.18;;;1.10;99.90;;;;;;5056962;28;20033;-61